sim
Sign-in with your pilot id or email,
or register
Callsign
Passwort

Schedule Details

Flight Number: DLH2036 (2)
Departure: Munich Airport (EDDM) at 09:55
Arrival: Berlin Tegel Airport (EDDT) at 11:10
Route: Lufthansa Passenger Schedule. Enter filed route here before submitting Pirep.

Weather Information
Getting current METAR information for EDDM 260950Z 26016KT 9999 -DZRA FEW016 BKN022 08/04 Q1000 TEMPO 26015G25KT
Getting current METAR information for EDDT 260950Z 30006KT 270V330 9999 -RA BKN049 11/09 Q0995 NOSIG

Schedule Frequency

Route Map